Cosby, MO (64436)

10:04 AM CDT on September 20, 2019 (GMT -0500)
Cosby | | Change Station

Elev 0 ft 39.88 °N, 94.73 °W | Updated 10 seconds ago

Partly Cloudy
Partly Cloudy
78.6 °F
Feels Like 81 °F
N
2.2
Wind Variable Wind from ESE
Gusts 2.2 mph

Today
High -- | Low -- °F
--% Chance of Precip.
Yesterday
High -- | Low -- °F
Precip. -- in
Pressure 30.01 in
Visibility 10.0 miles
Clouds Clear
Heat Index 81 °F
Dew Point 70 °F
Humidity 76%
Rainfall 0.00 in
Snow Depth Not available.
7:04 AM 7:19 PM
Waning Gibbous, 65% visible
METAR KSTJ 201453Z 16009KT 10SM CLR 26/20 A3003 RMK AO2 SLP162 T02610200 50012
Pressure 30.01 in
Visibility 10.0 miles
Clouds Clear
Heat Index 81 °F
Dew Point 70 °F
Humidity 76%
Rainfall 0.00 in
Snow Depth Not available.
7:04 AM 7:19 PM
Waning Gibbous, 65% visible
METAR KSTJ 201453Z 16009KT 10SM CLR 26/20 A3003 RMK AO2 SLP162 T02610200 50012

Get Your Daily Forecast Email!

Thanks for signing up!

Be on the lookout for a verification email in your inbox.

You'll start receiving severe weather alerts in your inbox..

×

10-Day Weather Forecast

Almanac

Astronomy

Sep. 20, 2019 Rise Set
Actual Time
Civil Twilight
Nautical Twilight
Astronomical Twilight
Moon
Length of Visible Light
Length of Day
Tomorrow will be .
, % of the Moon is Illuminated

Today's Extremes

State Highs State Lows

Community

WunderPhotos

Category 6

Welcome to Category 6. This is the collective home for Weather Underground's featured writeups by Dr. Jeff Masters (right), Bob Henson (left), Chris Burt, and other regular contributors.

Nearby

Air Quality

  Air Quality AQ Index Pollutant
Not available.

Snow Depth

Station Depth Elevation

Earthquake Activity

City Distance Mag. Time & Date
Minimum magnitude displayed is 2.5.

Coastal Water Temperatures

Place Temperature

Stations

Nearby Weather Stations

Station Location Temp. Windchill Dew Point Humidity Wind Precip. Elev Updated Type
                   

Watches & Warnings

There are currently no watches in effect.